Terminal Aerodrome Forecast
Issued by NWS

Home | Current Version | Previous Version | Graphics & Text | Print | Product List | Glossary On
Versions: 1 2 3 4 5 6 7 8 9 10 11 12 13 14 15 16 17 18 19 20 21 22 23 24 25 26 27 28 29 30 31 32 33
000
FTUS43 KLOT 242334
TAFORD
TAF
KORD 242334Z 2500/2606 06011KT P6SM VCSH FEW045 OVC070
      TEMPO 2501/2504 6SM -SHRA BKN040
     FM250400 08013KT P6SM VCSH OVC045
     FM251400 09015G20KT 5SM -RA BR OVC020
     FM251700 08016G23KT 3SM RA BR OVC007
     FM252200 06015G23KT 6SM -RA OVC008
     FM260200 03013G20KT P6SM FEW015 BKN025=

USA.gov is the U.S. government's official web portal to all federal, state and local government web resources and services.